Time;durP1;ratioP1;P1;durP2;ratioP2;P2;SDS_P1;SDS_P2;PMS_P1;PMS_P2;Temp;Humidity;BMP_temperature;BMP_pressure;BME280_temperature;BME280_humidity;BME280_pressure;Samples;Min_cycle;Max_cycle;Signal;HPM_P1;HPM_P2
2021/08/18 00:01:08;;;;;;;21.70;10.32;;;13.50;91.90;;;;;;5011498;28;20493;-69
2021/08/18 00:03:34;;;;;;;22.58;10.60;;;13.50;91.90;;;;;;4988507;28;20026;-69
2021/08/18 00:06:00;;;;;;;22.05;10.27;;;13.50;92.00;;;;;;5010515;28;20021;-69
2021/08/18 00:08:25;;;;;;;25.45;11.27;;;13.40;92.00;;;;;;5010887;28;20489;-69
2021/08/18 00:10:51;;;;;;;23.50;11.18;;;13.50;92.10;;;;;;5011496;28;20104;-70
2021/08/18 00:13:19;;;;;;;26.40;11.52;;;13.40;92.10;;;;;;5010466;28;20041;-70
2021/08/18 00:15:48;;;;;;;24.55;10.95;;;13.40;92.10;;;;;;5003834;28;20386;-69
2021/08/18 00:18:14;;;;;;;24.30;11.07;;;13.40;92.40;;;;;;5011075;28;20141;-69
2021/08/18 00:20:40;;;;;;;23.48;10.68;;;13.40;92.20;;;;;;5011575;28;20018;-70
2021/08/18 00:23:05;;;;;;;26.73;11.07;;;13.40;92.30;;;;;;5010913;28;20026;-70
2021/08/18 00:25:31;;;;;;;25.20;11.25;;;13.40;92.40;;;;;;5009373;28;20387;-69
2021/08/18 00:27:57;;;;;;;25.60;10.45;;;13.40;92.50;;;;;;5011086;28;20018;-70
2021/08/18 00:30:23;;;;;;;26.33;10.20;;;13.40;92.50;;;;;;5006384;28;20210;-70
2021/08/18 00:32:49;;;;;;;25.10;10.60;;;13.40;92.60;;;;;;5009671;28;20041;-69
2021/08/18 00:35:15;;;;;;;22.20;10.07;;;13.40;92.70;;;;;;5011259;28;20057;-75
2021/08/18 00:37:40;;;;;;;26.13;10.70;;;13.40;92.70;;;;;;5011890;28;20022;-69
2021/08/18 00:40:07;;;;;;;22.15;9.80;;;13.40;92.70;;;;;;5010030;28;20045;-69
2021/08/18 00:42:33;;;;;;;23.30;10.52;;;13.50;92.70;;;;;;5011462;28;20061;-70
2021/08/18 00:44:59;;;;;;;19.80;10.23;;;13.50;92.70;;;;;;5010506;28;20513;-70
2021/08/18 00:47:25;;;;;;;24.75;10.85;;;13.40;92.70;;;;;;5008110;28;20038;-70
2021/08/18 00:49:51;;;;;;;25.42;10.80;;;13.50;92.80;;;;;;5011036;28;20034;-70
2021/08/18 00:52:16;;;;;;;25.88;11.25;;;13.50;92.80;;;;;;5010777;28;20041;-69
2021/08/18 00:54:42;;;;;;;26.00;11.90;;;13.50;92.80;;;;;;5010396;28;20037;-69
2021/08/18 00:57:08;;;;;;;25.45;10.98;;;13.50;92.80;;;;;;5009252;28;20029;-69
2021/08/18 00:59:34;;;;;;;25.67;11.02;;;13.50;92.80;;;;;;5010978;28;20028;-69
2021/08/18 01:02:02;;;;;;;28.80;11.65;;;13.50;92.90;;;;;;5010203;28;20482;-69
2021/08/18 01:04:28;;;;;;;30.92;11.70;;;13.50;92.90;;;;;;5005763;28;20121;-69
2021/08/18 01:06:53;;;;;;;29.58;11.50;;;13.50;92.90;;;;;;4999474;28;20058;-69
2021/08/18 01:09:20;;;;;;;24.77;11.45;;;13.50;92.90;;;;;;5014561;28;20030;-69
2021/08/18 01:11:49;;;;;;;25.13;11.38;;;13.50;92.90;;;;;;5010695;28;20490;-69
2021/08/18 01:14:15;;;;;;;25.48;12.30;;;13.50;93.00;;;;;;5010103;28;20044;-69
2021/08/18 01:16:43;;;;;;;28.38;11.68;;;13.50;93.10;;;;;;5009629;28;20033;-70
2021/08/18 01:19:10;;;;;;;24.90;11.77;;;13.50;93.10;;;;;;5010675;28;20038;-69
2021/08/18 01:21:40;;;;;;;28.63;12.57;;;13.50;93.10;;;;;;5009510;28;20061;-69
2021/08/18 01:24:10;;;;;;;28.58;13.43;;;13.60;93.10;;;;;;4980855;28;20030;-69
2021/08/18 01:26:37;;;;;;;23.17;12.05;;;13.50;93.10;;;;;;5009497;28;20145;-70
2021/08/18 01:29:04;;;;;;;31.83;12.90;;;13.50;93.10;;;;;;5025396;28;20059;-69
2021/08/18 01:31:29;;;;;;;27.17;12.50;;;13.60;93.20;;;;;;5019293;28;20053;-70
2021/08/18 01:33:59;;;;;;;25.48;13.43;;;13.60;93.20;;;;;;5009897;28;20056;-69
2021/08/18 01:36:26;;;;;;;29.42;13.55;;;13.60;93.30;;;;;;5009470;28;20225;-69
2021/08/18 01:38:51;;;;;;;29.40;13.43;;;13.60;93.20;;;;;;5009879;28;20568;-69
2021/08/18 01:41:17;;;;;;;27.73;13.35;;;13.60;93.20;;;;;;5010158;28;20062;-69
2021/08/18 01:43:43;;;;;;;26.55;13.00;;;13.60;93.20;;;;;;5010458;28;20080;-69
2021/08/18 01:46:10;;;;;;;30.55;13.52;;;13.60;93.20;;;;;;5009594;28;20486;-69
2021/08/18 01:48:36;;;;;;;30.15;13.55;;;13.60;93.20;;;;;;5010143;28;20037;-69
2021/08/18 01:51:03;;;;;;;27.00;13.05;;;13.60;93.30;;;;;;5010091;28;20037;-70
2021/08/18 01:53:31;;;;;;;28.35;13.18;;;13.60;93.50;;;;;;5009946;28;20463;-69
2021/08/18 01:55:59;;;;;;;29.15;13.10;;;13.70;93.40;;;;;;5008732;28;20112;-69
2021/08/18 01:58:24;;;;;;;29.35;14.48;;;13.70;93.30;;;;;;5009987;28;20106;-69
2021/08/18 02:00:50;;;;;;;24.08;12.20;;;13.70;93.30;;;;;;5009763;28;20105;-69
2021/08/18 02:03:15;;;;;;;28.20;13.70;;;13.70;93.30;;;;;;5009919;28;20133;-69
2021/08/18 02:05:41;;;;;;;28.02;12.88;;;13.70;93.30;;;;;;5005008;28;20045;-70
2021/08/18 02:08:07;;;;;;;24.33;12.55;;;13.70;93.40;;;;;;5014031;28;20037;-70
2021/08/18 02:10:32;;;;;;;26.77;12.40;;;13.70;93.40;;;;;;5013673;28;20057;-70
2021/08/18 02:12:58;;;;;;;29.08;12.73;;;13.70;93.40;;;;;;5010380;28;20022;-69
2021/08/18 02:15:27;;;;;;;23.60;11.02;;;13.70;93.40;;;;;;5010613;28;20030;-69
2021/08/18 02:17:53;;;;;;;24.85;11.35;;;13.70;93.40;;;;;;5013571;28;20076;-69
2021/08/18 02:20:23;;;;;;;19.58;10.35;;;13.70;93.40;;;;;;5013530;28;20018;-69
2021/08/18 02:22:49;;;;;;;19.63;10.15;;;13.70;93.40;;;;;;5012548;28;20504;-69
2021/08/18 02:25:15;;;;;;;22.60;10.73;;;13.70;93.40;;;;;;5012942;28;20038;-69
2021/08/18 02:27:41;;;;;;;22.60;10.82;;;13.70;93.40;;;;;;5013378;28;20061;-70
2021/08/18 02:30:08;;;;;;;20.13;9.93;;;13.70;93.40;;;;;;5011739;28;20511;-69
2021/08/18 02:32:34;;;;;;;18.58;10.05;;;13.70;93.50;;;;;;5012823;28;20029;-69
2021/08/18 02:35:00;;;;;;;18.88;9.75;;;13.70;93.50;;;;;;5012373;28;20030;-69
2021/08/18 02:37:26;;;;;;;23.20;10.30;;;13.70;93.60;;;;;;5012758;28;20393;-69
2021/08/18 02:39:52;;;;;;;18.63;9.75;;;13.80;93.60;;;;;;5013486;28;20061;-69
2021/08/18 02:42:18;;;;;;;18.38;9.57;;;13.80;93.60;;;;;;5013353;28;20069;-70
2021/08/18 02:44:43;;;;;;;18.00;9.40;;;13.80;93.60;;;;;;5012482;28;20037;-69
2021/08/18 02:47:09;;;;;;;19.25;9.95;;;13.80;93.60;;;;;;5013083;28;20148;-70
2021/08/18 02:49:35;;;;;;;20.95;9.60;;;13.80;93.60;;;;;;5012549;28;20057;-69
2021/08/18 02:52:00;;;;;;;20.27;9.65;;;13.80;93.50;;;;;;5012362;28;20105;-69
2021/08/18 02:54:26;;;;;;;20.30;10.05;;;13.80;93.60;;;;;;5013099;28;20033;-69
2021/08/18 02:56:53;;;;;;;16.75;8.93;;;13.80;93.60;;;;;;5017278;28;20029;-70
2021/08/18 02:59:19;;;;;;;19.58;9.73;;;13.80;93.60;;;;;;5030292;28;20362;-70
2021/08/18 03:01:45;;;;;;;18.83;10.05;;;13.80;93.70;;;;;;5013115;28;20022;-69
2021/08/18 03:04:10;;;;;;;17.83;9.95;;;13.80;93.70;;;;;;5001055;28;20493;-69
2021/08/18 03:06:36;;;;;;;22.13;10.05;;;13.80;93.70;;;;;;5011530;28;20100;-70
2021/08/18 03:09:02;;;;;;;23.50;10.20;;;13.80;93.70;;;;;;5012386;28;20030;-70
2021/08/18 03:11:27;;;;;;;19.63;9.55;;;13.80;93.70;;;;;;5012996;28;20045;-69
2021/08/18 03:13:53;;;;;;;19.60;10.52;;;13.70;93.70;;;;;;5012428;28;20029;-69
2021/08/18 03:16:18;;;;;;;19.88;10.48;;;13.70;93.80;;;;;;5010820;28;20034;-69
2021/08/18 03:18:44;;;;;;;20.88;10.05;;;13.70;93.80;;;;;;5012298;28;20025;-69
2021/08/18 03:21:10;;;;;;;21.55;11.02;;;13.70;93.80;;;;;;5012320;28;20408;-69
2021/08/18 03:23:35;;;;;;;22.08;10.98;;;13.70;93.90;;;;;;5012100;28;20034;-69
2021/08/18 03:26:01;;;;;;;23.27;11.23;;;13.70;93.90;;;;;;4994820;28;20539;-70
2021/08/18 03:28:27;;;;;;;25.27;10.88;;;13.80;93.90;;;;;;5022243;28;20180;-70
2021/08/18 03:30:52;;;;;;;20.88;10.57;;;13.80;94.00;;;;;;5013366;28;20061;-70
2021/08/18 03:33:18;;;;;;;21.38;11.35;;;13.80;93.90;;;;;;5012327;28;20083;-70
2021/08/18 03:35:43;;;;;;;23.48;10.77;;;13.80;94.00;;;;;;5011210;28;20037;-70
2021/08/18 03:38:09;;;;;;;24.13;11.50;;;13.80;94.00;;;;;;5010549;28;20037;-70
2021/08/18 03:40:35;;;;;;;25.42;12.23;;;13.80;94.00;;;;;;5012211;28;20033;-69
2021/08/18 03:43:02;;;;;;;24.67;11.48;;;13.80;94.00;;;;;;5011356;28;20029;-69
2021/08/18 03:45:27;;;;;;;19.73;10.80;;;13.80;94.00;;;;;;5011143;28;20080;-69
2021/08/18 03:47:53;;;;;;;26.17;11.70;;;13.80;94.00;;;;;;5011228;28;20125;-69
2021/08/18 03:50:19;;;;;;;25.77;11.50;;;13.80;94.10;;;;;;5009761;28;20026;-69
2021/08/18 03:52:44;;;;;;;25.10;12.80;;;13.80;94.00;;;;;;5002395;28;20044;-69
2021/08/18 03:55:12;;;;;;;19.45;11.68;;;13.80;94.00;;;;;;4993596;28;20113;-69
2021/08/18 03:57:37;;;;;;;21.52;11.50;;;13.90;94.10;;;;;;5005099;28;20117;-69
2021/08/18 04:00:08;;;;;;;23.40;11.45;;;13.90;94.10;;;;;;5011737;28;20105;-69
2021/08/18 04:02:37;;;;;;;23.50;12.25;;;13.80;94.10;;;;;;5011815;28;20018;-69
2021/08/18 04:05:04;;;;;;;25.85;12.55;;;13.80;94.00;;;;;;5009969;28;20076;-69
2021/08/18 04:07:29;;;;;;;24.73;11.75;;;13.80;94.00;;;;;;5011574;28;20041;-69
2021/08/18 04:09:55;;;;;;;20.50;11.85;;;13.90;94.10;;;;;;4994112;28;20037;-70
2021/08/18 04:12:20;;;;;;;23.02;10.73;;;13.90;94.00;;;;;;5010854;28;20042;-70
2021/08/18 04:14:46;;;;;;;23.27;11.73;;;13.90;94.10;;;;;;5010237;28;20041;-69
2021/08/18 04:17:12;;;;;;;19.85;10.68;;;13.90;94.10;;;;;;5011514;28;20038;-69
2021/08/18 04:19:37;;;;;;;21.60;11.15;;;13.90;94.20;;;;;;5011265;28;20029;-69
2021/08/18 04:22:04;;;;;;;22.58;10.80;;;13.90;94.10;;;;;;5011095;28;20083;-70
2021/08/18 04:24:30;;;;;;;22.00;11.32;;;13.90;94.10;;;;;;4992937;28;20036;-69
2021/08/18 04:26:55;;;;;;;21.65;10.60;;;13.90;94.10;;;;;;5016771;28;20030;-69
2021/08/18 04:29:21;;;;;;;21.80;11.40;;;13.90;94.10;;;;;;5025510;28;20052;-69
2021/08/18 04:31:47;;;;;;;21.83;10.77;;;13.90;94.20;;;;;;5008809;28;20034;-69
2021/08/18 04:34:12;;;;;;;24.55;11.02;;;13.90;94.20;;;;;;5007974;28;20450;-69
2021/08/18 04:36:38;;;;;;;20.48;10.65;;;13.90;94.20;;;;;;5010067;28;20026;-69
2021/08/18 04:39:03;;;;;;;21.13;10.45;;;13.90;94.10;;;;;;5011488;28;20036;-70
2021/08/18 04:41:29;;;;;;;18.90;10.25;;;13.90;94.20;;;;;;5011125;28;20105;-69
2021/08/18 04:43:55;;;;;;;19.95;10.88;;;13.90;94.20;;;;;;5010528;28;20034;-69
2021/08/18 04:46:20;;;;;;;15.73;9.27;;;13.90;94.10;;;;;;5011414;28;20033;-69
2021/08/18 04:48:46;;;;;;;18.45;9.65;;;13.90;94.10;;;;;;5004253;28;20077;-69
2021/08/18 04:53:39;;;;;;;19.27;9.93;;;13.90;94.20;;;;;;5009248;28;20053;-66
2021/08/18 04:56:05;;;;;;;19.63;9.20;;;13.90;94.20;;;;;;5009678;28;20038;-66
2021/08/18 04:58:30;;;;;;;15.65;8.85;;;13.90;94.20;;;;;;4993014;28;20119;-66
2021/08/18 05:00:56;;;;;;;17.35;9.50;;;13.90;94.20;;;;;;5010604;28;20065;-66
2021/08/18 05:03:22;;;;;;;15.00;8.98;;;13.90;94.20;;;;;;5010257;28;20076;-66
2021/08/18 05:05:47;;;;;;;16.55;9.55;;;13.90;94.30;;;;;;5010138;28;20033;-66
2021/08/18 05:08:13;;;;;;;17.08;9.10;;;13.90;94.30;;;;;;5010333;28;20080;-66
2021/08/18 05:10:39;;;;;;;14.65;8.80;;;13.90;94.30;;;;;;5010671;28;20037;-66
2021/08/18 05:13:05;;;;;;;15.23;8.63;;;13.90;94.40;;;;;;5010102;28;20038;-66
2021/08/18 05:15:31;;;;;;;15.23;8.15;;;13.90;94.40;;;;;;5010016;28;20087;-66
2021/08/18 05:17:56;;;;;;;13.68;7.95;;;13.90;94.40;;;;;;5003628;28;20500;-66
2021/08/18 05:20:23;;;;;;;16.48;8.27;;;13.90;94.50;;;;;;5010585;28;20062;-67
2021/08/18 05:22:49;;;;;;;15.23;9.18;;;14.00;94.40;;;;;;5008889;28;20018;-66
2021/08/18 05:25:17;;;;;;;15.52;8.40;;;13.90;94.50;;;;;;5005835;28;20072;-67
2021/08/18 05:27:43;;;;;;;15.48;8.32;;;13.90;94.40;;;;;;5009142;28;20375;-66
2021/08/18 05:30:11;;;;;;;13.95;8.93;;;13.90;94.50;;;;;;5010386;28;20032;-67
2021/08/18 05:32:38;;;;;;;16.38;9.40;;;13.90;94.50;;;;;;5010022;28;20021;-66
2021/08/18 05:35:06;;;;;;;13.88;8.65;;;13.90;94.50;;;;;;5003341;28;20109;-66
2021/08/18 05:37:31;;;;;;;19.75;10.35;;;13.90;94.60;;;;;;5010305;28;20478;-66
2021/08/18 05:39:57;;;;;;;20.15;9.57;;;13.90;94.60;;;;;;5007727;28;20062;-66
2021/08/18 05:42:22;;;;;;;21.83;11.00;;;13.90;94.60;;;;;;5011475;28;20026;-67
2021/08/18 05:44:48;;;;;;;20.50;10.45;;;14.00;94.60;;;;;;5013959;28;20466;-66
2021/08/18 05:47:14;;;;;;;20.23;10.75;;;14.00;94.60;;;;;;5013664;28;20037;-68
2021/08/18 05:49:39;;;;;;;20.92;10.02;;;14.00;94.70;;;;;;4997440;28;20026;-67
2021/08/18 05:52:06;;;;;;;22.30;11.30;;;14.00;94.70;;;;;;5014019;28;20076;-67
2021/08/18 05:54:31;;;;;;;21.13;11.43;;;14.00;94.60;;;;;;5013866;28;20076;-67
2021/08/18 05:56:57;;;;;;;20.60;10.40;;;14.10;94.70;;;;;;4988185;28;20022;-67
2021/08/18 05:59:22;;;;;;;19.17;10.35;;;14.00;94.60;;;;;;5011800;28;20108;-67
2021/08/18 06:01:48;;;;;;;21.40;11.00;;;14.00;94.60;;;;;;5013880;28;20029;-67
2021/08/18 06:04:14;;;;;;;16.98;9.82;;;14.00;94.70;;;;;;4994185;28;20038;-68
2021/08/18 06:06:39;;;;;;;20.10;10.13;;;14.10;94.70;;;;;;5013512;28;20025;-68
2021/08/18 06:09:05;;;;;;;18.95;10.02;;;14.10;94.70;;;;;;5014236;28;20030;-66
2021/08/18 06:11:30;;;;;;;21.33;10.27;;;14.10;94.70;;;;;;5014284;28;20026;-68
2021/08/18 06:13:56;;;;;;;22.45;10.63;;;14.10;94.70;;;;;;5012376;28;20029;-67
2021/08/18 06:16:22;;;;;;;21.25;10.05;;;14.10;94.70;;;;;;5013904;28;20026;-68
2021/08/18 06:18:48;;;;;;;20.38;10.38;;;14.10;94.70;;;;;;4996704;28;20028;-67
2021/08/18 06:21:15;;;;;;;22.77;10.18;;;14.10;94.70;;;;;;5014147;28;20441;-68
2021/08/18 06:23:41;;;;;;;21.88;9.75;;;14.10;94.60;;;;;;4996000;28;20065;-68
2021/08/18 06:26:07;;;;;;;18.00;10.50;;;14.10;94.70;;;;;;5013109;28;20108;-67
2021/08/18 06:28:34;;;;;;;18.17;9.95;;;14.10;94.70;;;;;;5013795;28;20057;-68
2021/08/18 06:31:00;;;;;;;17.65;9.32;;;14.10;94.80;;;;;;5008986;28;20498;-67
2021/08/18 06:33:25;;;;;;;18.80;9.50;;;14.10;94.80;;;;;;5012002;28;20049;-66
2021/08/18 06:35:51;;;;;;;17.60;9.38;;;14.20;94.70;;;;;;5012799;28;20108;-66
2021/08/18 06:38:17;;;;;;;18.52;9.82;;;14.10;94.80;;;;;;5013062;28;20040;-66
2021/08/18 06:40:42;;;;;;;18.85;9.60;;;14.20;94.70;;;;;;4996430;28;20025;-66
2021/08/18 06:43:08;;;;;;;18.40;9.38;;;14.20;94.70;;;;;;5013736;28;20073;-66
2021/08/18 06:45:33;;;;;;;17.08;9.23;;;14.20;94.70;;;;;;5011891;28;20036;-66
2021/08/18 06:47:59;;;;;;;18.70;8.73;;;14.20;94.70;;;;;;5013386;28;20478;-66
2021/08/18 06:50:25;;;;;;;15.65;8.57;;;14.20;94.70;;;;;;5015299;28;20112;-66
2021/08/18 06:52:50;;;;;;;16.35;8.82;;;14.20;94.70;;;;;;5014536;28;20034;-66
2021/08/18 06:55:16;;;;;;;17.33;9.15;;;14.30;94.80;;;;;;5012564;28;20092;-66
2021/08/18 06:57:42;;;;;;;15.95;8.98;;;14.30;94.80;;;;;;5013335;28;20022;-66
2021/08/18 07:00:09;;;;;;;18.00;8.80;;;14.30;94.70;;;;;;5013517;28;20056;-66
2021/08/18 07:02:46;;;;;;;16.35;8.57;;;14.30;94.70;;;;;;5009313;28;20065;-66
2021/08/18 07:05:12;;;;;;;13.45;7.85;;;14.30;94.80;;;;;;5012449;28;20026;-66
2021/08/18 07:07:38;;;;;;;13.05;8.00;;;14.30;94.70;;;;;;5010653;28;20017;-66
2021/08/18 07:10:04;;;;;;;13.85;7.95;;;14.30;94.60;;;;;;5017218;28;20146;-65
2021/08/18 07:12:30;;;;;;;14.57;8.20;;;14.30;94.60;;;;;;5007026;28;20509;-66
2021/08/18 07:14:56;;;;;;;12.27;7.50;;;14.30;94.70;;;;;;5003525;28;20023;-66
2021/08/18 07:17:21;;;;;;;17.13;8.30;;;14.30;94.70;;;;;;4992911;28;20022;-66
2021/08/18 07:19:47;;;;;;;13.23;7.93;;;14.30;94.80;;;;;;5013001;28;20104;-66
2021/08/18 07:22:13;;;;;;;13.65;8.38;;;14.30;94.80;;;;;;5012671;28;20485;-66
2021/08/18 07:24:38;;;;;;;13.30;7.20;;;14.40;94.80;;;;;;5010632;28;20422;-66
2021/08/18 07:27:04;;;;;;;14.27;8.00;;;14.40;94.80;;;;;;5005522;28;20042;-66
2021/08/18 07:29:30;;;;;;;13.13;7.80;;;14.40;94.80;;;;;;4996923;28;20085;-66
2021/08/18 07:31:56;;;;;;;13.07;7.68;;;14.40;94.80;;;;;;4994951;28;20029;-66
2021/08/18 07:34:21;;;;;;;13.70;7.28;;;14.40;94.80;;;;;;5012839;28;20036;-66
2021/08/18 07:36:47;;;;;;;12.63;7.63;;;14.50;94.80;;;;;;5011715;28;20076;-67
2021/08/18 07:39:12;;;;;;;15.82;7.60;;;14.50;94.80;;;;;;5005551;28;20061;-68
2021/08/18 07:41:38;;;;;;;12.20;6.88;;;14.50;94.80;;;;;;5013999;28;20054;-67
2021/08/18 07:44:04;;;;;;;11.45;7.05;;;14.50;94.80;;;;;;5012902;28;20041;-67
2021/08/18 07:46:29;;;;;;;13.48;6.85;;;14.50;94.80;;;;;;5011696;28;20545;-67
2021/08/18 07:48:55;;;;;;;11.18;6.95;;;14.50;94.80;;;;;;5014619;28;20041;-67
2021/08/18 07:51:20;;;;;;;11.43;6.90;;;14.60;94.80;;;;;;5012576;28;20088;-68
2021/08/18 07:53:46;;;;;;;11.60;6.80;;;14.60;94.80;;;;;;5012127;28;20025;-67
2021/08/18 07:56:12;;;;;;;9.88;6.32;;;14.60;94.80;;;;;;5011415;28;20029;-67
2021/08/18 07:58:37;;;;;;;9.13;6.18;;;14.70;94.80;;;;;;4994610;28;20787;-67
2021/08/18 08:01:04;;;;;;;10.25;6.10;;;14.70;94.80;;;;;;5012500;28;20021;-67
2021/08/18 08:03:30;;;;;;;9.07;5.53;;;14.70;94.80;;;;;;4994309;28;20022;-67
2021/08/18 08:05:56;;;;;;;10.00;5.55;;;14.70;94.80;;;;;;5009510;28;21687;-67
2021/08/18 08:08:22;;;;;;;7.22;5.38;;;14.80;94.80;;;;;;5010978;28;20426;-67
2021/08/18 08:10:47;;;;;;;8.18;5.10;;;14.80;94.70;;;;;;5008605;28;20021;-67
2021/08/18 08:13:13;;;;;;;9.00;5.50;;;14.80;94.70;;;;;;5000865;28;20110;-67
2021/08/18 08:15:39;;;;;;;6.45;4.45;;;14.80;94.80;;;;;;5010508;28;20038;-67
2021/08/18 08:18:04;;;;;;;6.85;4.18;;;14.80;94.80;;;;;;5011156;28;20502;-67
2021/08/18 08:20:30;;;;;;;5.45;3.70;;;14.90;94.70;;;;;;5012081;28;20454;-67
2021/08/18 08:22:56;;;;;;;4.90;3.72;;;14.80;94.70;;;;;;5012203;28;20375;-67
2021/08/18 08:25:21;;;;;;;3.95;3.58;;;14.90;94.70;;;;;;5010798;28;20036;-67
2021/08/18 08:27:47;;;;;;;3.88;2.97;;;14.90;94.70;;;;;;4999403;28;20062;-67
2021/08/18 08:30:13;;;;;;;4.75;3.38;;;14.90;94.70;;;;;;4999974;28;20474;-67
2021/08/18 08:32:39;;;;;;;4.28;3.40;;;15.00;94.70;;;;;;5011929;28;20461;-67
2021/08/18 08:35:07;;;;;;;5.18;3.10;;;15.00;94.70;;;;;;5011039;28;20033;-67
2021/08/18 08:37:32;;;;;;;4.15;2.97;;;15.10;94.60;;;;;;5011608;28;20030;-68
2021/08/18 08:39:58;;;;;;;4.03;2.92;;;15.10;94.60;;;;;;5007124;28;20073;-67
2021/08/18 08:42:26;;;;;;;3.42;2.90;;;15.10;94.50;;;;;;5007778;28;20022;-67
2021/08/18 08:44:53;;;;;;;4.95;2.97;;;15.10;94.50;;;;;;5010471;28;20025;-67
2021/08/18 08:47:21;;;;;;;6.45;2.95;;;15.00;94.50;;;;;;4993173;28;20504;-67
2021/08/18 08:49:48;;;;;;;8.05;2.90;;;15.00;94.50;;;;;;4993657;28;20112;-67
2021/08/18 08:52:15;;;;;;;5.47;3.03;;;15.00;94.40;;;;;;5011031;28;20378;-67
2021/08/18 08:54:43;;;;;;;4.18;3.33;;;15.10;94.50;;;;;;5010270;28;20036;-67
2021/08/18 08:57:09;;;;;;;4.05;3.05;;;15.10;94.50;;;;;;5009737;28;20475;-67
2021/08/18 08:59:35;;;;;;;4.95;3.65;;;15.10;94.50;;;;;;5011157;28;20037;-67
2021/08/18 09:02:06;;;;;;;4.45;3.35;;;15.10;94.40;;;;;;5011559;28;20030;-67
2021/08/18 09:04:37;;;;;;;4.88;3.20;;;15.10;94.50;;;;;;5010702;28;20466;-66
2021/08/18 09:07:23;;;;;;;4.10;3.42;;;15.10;94.40;;;;;;5010936;28;20029;-66
2021/08/18 09:09:57;;;;;;;4.35;3.20;;;15.10;94.60;;;;;;5010671;28;20045;-68
2021/08/18 09:12:32;;;;;;;7.60;3.97;;;15.10;94.50;;;;;;5011153;28;20026;-67
2021/08/18 09:15:16;;;;;;;5.32;3.40;;;15.10;94.50;;;;;;5008999;28;20034;-66
2021/08/18 09:17:42;;;;;;;3.80;3.35;;;15.10;94.40;;;;;;5010491;28;20390;-66
2021/08/18 09:20:38;;;;;;;5.15;3.20;;;15.20;94.50;;;;;;5010740;28;20022;-66
2021/08/18 09:23:04;;;;;;;5.70;3.50;;;15.30;94.50;;;;;;4993161;28;20034;-66
2021/08/18 09:25:35;;;;;;;4.32;2.75;;;15.20;94.40;;;;;;4994276;28;20026;-65
2021/08/18 09:28:01;;;;;;;3.80;2.88;;;15.30;94.50;;;;;;5010848;28;20030;-65
2021/08/18 09:30:29;;;;;;;3.30;3.00;;;15.30;94.40;;;;;;5010967;28;20500;-66
2021/08/18 09:32:58;;;;;;;3.05;2.75;;;15.30;94.40;;;;;;5010824;28;20156;-66
2021/08/18 09:35:26;;;;;;;2.95;2.67;;;15.30;94.30;;;;;;5009784;28;20402;-67
2021/08/18 09:37:54;;;;;;;4.70;2.60;;;15.30;94.30;;;;;;4992708;28;20435;-66
2021/08/18 09:40:26;;;;;;;3.28;2.55;;;15.40;94.40;;;;;;4992235;28;20030;-66
2021/08/18 09:42:53;;;;;;;2.60;2.40;;;15.40;94.40;;;;;;4996868;28;20053;-66
2021/08/18 09:45:22;;;;;;;3.70;2.67;;;15.40;94.30;;;;;;5007297;28;20030;-66
2021/08/18 09:47:59;;;;;;;2.70;2.50;;;15.40;94.30;;;;;;5008723;28;20401;-67
2021/08/18 09:50:28;;;;;;;3.17;2.70;;;15.40;94.40;;;;;;5009960;28;20034;-67
2021/08/18 09:53:05;;;;;;;3.85;2.88;;;15.50;94.40;;;;;;5010713;28;20034;-67
2021/08/18 09:55:30;;;;;;;3.28;2.83;;;15.60;94.40;;;;;;5009859;28;20029;-66
2021/08/18 09:57:56;;;;;;;3.00;2.60;;;15.60;94.30;;;;;;5010508;28;20018;-66
2021/08/18 10:00:22;;;;;;;2.72;2.53;;;15.70;94.30;;;;;;5001747;28;20499;-66
2021/08/18 10:02:48;;;;;;;3.70;3.13;;;15.80;94.30;;;;;;4991191;28;20106;-66
2021/08/18 10:05:14;;;;;;;3.40;3.10;;;15.80;94.20;;;;;;4989940;28;20050;-66
2021/08/18 10:07:40;;;;;;;5.40;3.30;;;15.80;94.20;;;;;;5009590;28;20022;-66
2021/08/18 10:10:07;;;;;;;4.05;3.17;;;15.90;94.10;;;;;;5010654;28;20030;-67
2021/08/18 10:12:33;;;;;;;3.72;2.90;;;15.90;94.00;;;;;;5010946;28;20036;-67
2021/08/18 10:15:01;;;;;;;3.60;3.10;;;16.00;94.10;;;;;;4990175;28;20137;-66
2021/08/18 10:17:29;;;;;;;7.15;3.17;;;16.20;94.10;;;;;;5010111;28;20076;-66
2021/08/18 10:19:56;;;;;;;3.35;3.05;;;16.20;94.00;;;;;;5009993;28;20060;-66
2021/08/18 10:22:28;;;;;;;3.10;2.63;;;16.30;93.90;;;;;;5008871;28;20038;-67
2021/08/18 10:24:55;;;;;;;3.10;2.80;;;16.40;93.80;;;;;;4999953;28;20034;-68
2021/08/18 10:27:53;;;;;;;2.90;2.63;;;16.30;93.60;;;;;;5009338;28;20037;-67
2021/08/18 10:30:27;;;;;;;4.07;3.08;;;16.40;93.70;;;;;;4967936;28;20046;-67
2021/08/18 10:32:53;;;;;;;3.65;2.88;;;16.40;93.60;;;;;;5002664;28;20033;-67
2021/08/18 10:35:37;;;;;;;2.90;2.60;;;16.50;93.60;;;;;;5026618;28;20068;-66
2021/08/18 10:38:24;;;;;;;3.35;2.80;;;16.60;93.50;;;;;;5028126;28;20021;-66
2021/08/18 10:40:53;;;;;;;2.63;2.42;;;16.80;93.40;;;;;;5021840;28;20076;-66
2021/08/18 10:43:58;;;;;;;3.05;2.75;;;16.80;93.20;;;;;;5012473;28;20041;-66
2021/08/18 10:46:25;;;;;;;2.60;2.40;;;17.00;93.00;;;;;;5013016;28;20141;-65
2021/08/18 10:48:53;;;;;;;3.22;2.78;;;17.10;93.00;;;;;;5013104;28;20352;-66
2021/08/18 10:51:37;;;;;;;3.33;3.03;;;17.20;93.00;;;;;;5011580;28;20045;-65
2021/08/18 10:54:29;;;;;;;2.83;2.63;;;17.20;92.70;;;;;;5014621;28;20041;-67
2021/08/18 10:56:58;;;;;;;3.10;2.80;;;17.30;92.80;;;;;;4980353;28;20433;-68
2021/08/18 10:59:36;;;;;;;3.63;3.28;;;17.30;92.60;;;;;;4995394;28;20754;-67
2021/08/18 11:02:02;;;;;;;4.32;3.65;;;17.50;92.50;;;;;;5013440;28;20057;-67
2021/08/18 11:04:50;;;;;;;3.42;3.13;;;17.50;92.40;;;;;;5013140;28;20026;-67
2021/08/18 11:07:17;;;;;;;4.78;3.00;;;17.60;92.40;;;;;;5012941;28;20030;-67
2021/08/18 11:09:48;;;;;;;3.65;3.00;;;17.60;92.30;;;;;;5013308;28;20104;-67
2021/08/18 11:12:39;;;;;;;3.33;2.80;;;17.60;92.10;;;;;;5012925;28;20436;-67
2021/08/18 11:15:20;;;;;;;3.33;2.70;;;17.50;92.00;;;;;;4994316;28;20034;-67
2021/08/18 11:17:50;;;;;;;3.22;2.58;;;17.50;92.00;;;;;;4998120;28;20029;-65
2021/08/18 11:20:19;;;;;;;3.15;2.85;;;17.50;92.10;;;;;;4995226;28;20482;-65
2021/08/18 11:22:46;;;;;;;7.70;3.00;;;17.50;92.00;;;;;;5011823;28;20037;-67
2021/08/18 11:25:18;;;;;;;2.97;2.70;;;17.60;91.90;;;;;;5011195;28;20059;-66
2021/08/18 11:27:54;;;;;;;3.60;2.88;;;17.70;92.00;;;;;;5012806;28;20044;-66
2021/08/18 11:30:25;;;;;;;3.78;2.83;;;17.70;91.50;;;;;;5012912;28;20033;-67
2021/08/18 11:32:51;;;;;;;3.42;3.00;;;17.80;91.30;;;;;;5007651;28;20049;-66
2021/08/18 11:35:32;;;;;;;3.05;2.75;;;17.90;91.60;;;;;;5009896;28;20068;-66
2021/08/18 11:38:05;;;;;;;2.88;2.63;;;18.00;91.30;;;;;;5010943;28;20018;-66
2021/08/18 11:40:31;;;;;;;3.10;2.80;;;18.10;91.20;;;;;;5012553;28;20052;-66
2021/08/18 11:43:00;;;;;;;3.67;2.40;;;18.10;91.10;;;;;;4994507;28;20022;-66
2021/08/18 11:45:26;;;;;;;3.33;2.80;;;18.10;91.00;;;;;;5011020;28;20029;-65
2021/08/18 11:48:04;;;;;;;2.13;2.03;;;18.10;91.00;;;;;;5011481;28;20022;-65
2021/08/18 11:50:30;;;;;;;2.08;1.98;;;18.00;90.60;;;;;;5011722;28;20068;-67
2021/08/18 11:53:04;;;;;;;2.03;1.92;;;17.90;90.70;;;;;;5012098;28;20065;-66
2021/08/18 11:55:30;;;;;;;2.95;2.47;;;17.90;90.70;;;;;;5010240;28;20033;-67
2021/08/18 11:58:08;;;;;;;2.08;1.98;;;17.80;90.70;;;;;;5011305;28;20025;-65
2021/08/18 12:00:35;;;;;;;2.50;1.92;;;17.80;90.70;;;;;;5011918;28;20105;-67
2021/08/18 12:03:02;;;;;;;4.35;3.50;;;17.80;90.70;;;;;;5012234;28;20355;-66
2021/08/18 12:05:30;;;;;;;2.67;2.40;;;17.70;90.60;;;;;;5009785;28;20029;-66
2021/08/18 12:08:11;;;;;;;2.15;2.03;;;17.60;90.60;;;;;;4993890;28;20372;-66
2021/08/18 12:10:45;;;;;;;2.95;2.15;;;17.60;90.70;;;;;;5011860;28;20049;-66
2021/08/18 12:13:18;;;;;;;2.13;2.00;;;17.60;90.70;;;;;;5011923;28;20402;-65
2021/08/18 12:15:46;;;;;;;2.53;1.98;;;17.60;90.70;;;;;;4996088;28;20026;-68
2021/08/18 12:18:31;;;;;;;2.42;2.22;;;17.60;90.80;;;;;;5011903;28;20037;-67
2021/08/18 12:21:15;;;;;;;2.00;1.90;;;17.80;90.70;;;;;;5006467;28;20030;-66
2021/08/18 12:23:41;;;;;;;117.35;95.40;;;17.80;90.60;;;;;;4989442;28;20048;-67
2021/08/18 12:26:31;;;;;;;3.00;2.80;;;17.80;90.60;;;;;;4994374;28;20097;-67
2021/08/18 12:29:00;;;;;;;2.17;2.08;;;17.80;90.70;;;;;;4994875;28;20022;-67
2021/08/18 12:31:51;;;;;;;1.60;1.50;;;17.90;90.70;;;;;;5009940;28;20113;-67
2021/08/18 12:34:27;;;;;;;5.72;3.58;;;18.00;90.50;;;;;;4993522;28;20033;-67
2021/08/18 12:37:05;;;;;;;1.98;1.88;;;18.10;90.40;;;;;;5010932;28;20065;-67
2021/08/18 12:39:36;;;;;;;1.55;1.45;;;18.10;90.30;;;;;;5002755;28;20431;-67
2021/08/18 12:42:02;;;;;;;1.70;1.60;;;18.10;90.10;;;;;;5011937;28;20022;-67